sensor_id;sensor_type;location;lat;lon;timestamp;pressure;altitude;pressure_sealevel;temperature;humidity
47166;BME280;32930;51.112;13.762;2022-10-31T02:12:42;99782.38;;;13.32;87.70
47166;BME280;32930;51.112;13.762;2022-10-31T02:15:09;99784.09;;;13.30;88.24
47166;BME280;32930;51.112;13.762;2022-10-31T04:07:21;99826.16;;;12.52;86.74
47166;BME280;32930;51.112;13.762;2022-10-31T04:09:51;99829.56;;;12.52;86.84
47166;BME280;32930;51.112;13.762;2022-10-31T04:12:20;99829.59;;;12.69;87.18
47166;BME280;32930;51.112;13.762;2022-10-31T04:14:49;99828.72;;;12.55;86.84
47166;BME280;32930;51.112;13.762;2022-10-31T04:17:18;99826.13;;;12.46;86.21
47166;BME280;32930;51.112;13.762;2022-10-31T04:19:46;99828.66;;;12.31;86.75
47166;BME280;32930;51.112;13.762;2022-10-31T04:22:12;99832.97;;;12.38;86.74
47166;BME280;32930;51.112;13.762;2022-10-31T04:24:39;99828.66;;;12.32;86.78
47166;BME280;32930;51.112;13.762;2022-10-31T04:27:06;99825.25;;;12.44;86.27
47166;BME280;32930;51.112;13.762;2022-10-31T04:29:32;99825.25;;;12.38;85.97
47166;BME280;32930;51.112;13.762;2022-10-31T04:31:57;99833.00;;;12.42;85.95
47166;BME280;32930;51.112;13.762;2022-10-31T04:34:23;99826.09;;;12.34;86.64
47166;BME280;32930;51.112;13.762;2022-10-31T04:36:48;99833.84;;;12.43;86.44
47166;BME280;32930;51.112;13.762;2022-10-31T04:39:14;99831.25;;;12.34;85.86
47166;BME280;32930;51.112;13.762;2022-10-31T04:41:39;99833.81;;;12.34;85.91
47166;BME280;32930;51.112;13.762;2022-10-31T04:44:05;99834.66;;;12.36;86.04
47166;BME280;32930;51.112;13.762;2022-10-31T04:46:31;99829.50;;;12.28;85.71
47166;BME280;32930;51.112;13.762;2022-10-31T04:48:56;99839.81;;;12.28;85.42
47166;BME280;32930;51.112;13.762;2022-10-31T04:51:22;99838.06;;;12.21;86.23
47166;BME280;32930;51.112;13.762;2022-10-31T04:53:47;99837.19;;;12.16;86.52
47166;BME280;32930;51.112;13.762;2022-10-31T04:56:13;99839.78;;;12.25;85.35
47166;BME280;32930;51.112;13.762;2022-10-31T04:58:38;99838.91;;;12.20;85.83
47166;BME280;32930;51.112;13.762;2022-10-31T05:01:04;99838.91;;;12.18;85.74
47166;BME280;32930;51.112;13.762;2022-10-31T05:03:30;99844.03;;;12.12;85.72
47166;BME280;32930;51.112;13.762;2022-10-31T05:05:55;99837.22;;;12.17;85.46
47166;BME280;32930;51.112;13.762;2022-10-31T05:08:21;99845.75;;;12.12;86.38
47166;BME280;32930;51.112;13.762;2022-10-31T05:10:46;99837.22;;;12.23;85.62
47166;BME280;32930;51.112;13.762;2022-10-31T05:13:12;99840.63;;;12.12;85.92
47166;BME280;32930;51.112;13.762;2022-10-31T05:15:37;99844.06;;;12.15;85.93
47166;BME280;32930;51.112;13.762;2022-10-31T05:18:03;99843.16;;;12.13;84.53
47166;BME280;32930;51.112;13.762;2022-10-31T05:20:30;99840.66;;;12.21;86.08
47166;BME280;32930;51.112;13.762;2022-10-31T05:22:57;99844.00;;;12.06;85.92
47166;BME280;32930;51.112;13.762;2022-10-31T05:25:25;99843.13;;;12.01;85.75
47166;BME280;32930;51.112;13.762;2022-10-31T05:27:55;99842.34;;;12.19;85.57
47166;BME280;32930;51.112;13.762;2022-10-31T05:35:30;99850.84;;;12.01;85.10
47166;BME280;32930;51.112;13.762;2022-10-31T05:37:57;99850.00;;;12.03;85.45
47166;BME280;32930;51.112;13.762;2022-10-31T05:40:25;99852.53;;;11.94;85.09
47166;BME280;32930;51.112;13.762;2022-10-31T05:45:21;99855.88;;;11.82;85.47
47166;BME280;32930;51.112;13.762;2022-10-31T06:11:22;99867.00;;;11.77;85.29
47166;BME280;32930;51.112;13.762;2022-10-31T07:23:34;99917.94;;;12.59;91.64
47166;BME280;32930;51.112;13.762;2022-10-31T07:44:54;99930.09;;;13.25;91.40
47166;BME280;32930;51.112;13.762;2022-10-31T07:47:19;99927.53;;;13.35;91.86
47166;BME280;32930;51.112;13.762;2022-10-31T07:49:45;99930.06;;;13.61;91.78
47166;BME280;32930;51.112;13.762;2022-10-31T07:52:10;99934.38;;;13.68;90.56
47166;BME280;32930;51.112;13.762;2022-10-31T07:54:36;99936.06;;;13.85;90.56
47166;BME280;32930;51.112;13.762;2022-10-31T07:57:01;99934.38;;;13.78;91.10
47166;BME280;32930;51.112;13.762;2022-10-31T07:59:27;99935.19;;;13.95;91.44
47166;BME280;32930;51.112;13.762;2022-10-31T08:01:52;99932.56;;;14.03;90.96
47166;BME280;32930;51.112;13.762;2022-10-31T08:04:18;99937.72;;;14.10;89.52
47166;BME280;32930;51.112;13.762;2022-10-31T08:51:10;99939.81;;;16.13;80.48
47166;BME280;32930;51.112;13.762;2022-10-31T08:53:36;99938.06;;;16.14;82.48
47166;BME280;32930;51.112;13.762;2022-10-31T08:56:01;99938.91;;;16.16;81.48
47166;BME280;32930;51.112;13.762;2022-10-31T08:58:27;99939.69;;;16.22;82.27
47166;BME280;32930;51.112;13.762;2022-10-31T09:16:10;99929.59;;;16.71;83.92
47166;BME280;32930;51.112;13.762;2022-10-31T10:22:55;99927.72;;;17.92;72.58
47166;BME280;32930;51.112;13.762;2022-10-31T10:49:52;99898.59;;;18.60;74.39
47166;BME280;32930;51.112;13.762;2022-10-31T10:55:53;99900.28;;;18.62;72.74
47166;BME280;32930;51.112;13.762;2022-10-31T10:58:24;99901.97;;;18.66;72.63
47166;BME280;32930;51.112;13.762;2022-10-31T11:00:54;99901.84;;;18.69;72.68
47166;BME280;32930;51.112;13.762;2022-10-31T11:03:21;99896.88;;;18.60;73.60
47166;BME280;32930;51.112;13.762;2022-10-31T11:05:52;99888.63;;;18.82;72.68
47166;BME280;32930;51.112;13.762;2022-10-31T11:08:33;99888.47;;;18.88;72.64
47166;BME280;32930;51.112;13.762;2022-10-31T11:11:23;99887.34;;;18.99;73.26
47166;BME280;32930;51.112;13.762;2022-10-31T11:13:57;99884.41;;;19.13;71.73
47166;BME280;32930;51.112;13.762;2022-10-31T11:18:52;99880.25;;;19.06;71.41
47166;BME280;32930;51.112;13.762;2022-10-31T11:21:24;99873.84;;;19.19;71.73
47166;BME280;32930;51.112;13.762;2022-10-31T11:24:02;99868.50;;;19.26;71.66
47166;BME280;32930;51.112;13.762;2022-10-31T11:26:28;99867.56;;;19.28;71.88
47166;BME280;32930;51.112;13.762;2022-10-31T11:28:58;99863.13;;;19.32;71.24
47166;BME280;32930;51.112;13.762;2022-10-31T11:31:25;99864.31;;;19.20;74.05
47166;BME280;32930;51.112;13.762;2022-10-31T11:34:02;99863.22;;;19.29;73.24
47166;BME280;32930;51.112;13.762;2022-10-31T11:38:55;99861.38;;;19.32;72.22
47166;BME280;32930;51.112;13.762;2022-10-31T11:41:48;99855.47;;;19.27;73.05
47166;BME280;32930;51.112;13.762;2022-10-31T11:44:27;99846.72;;;19.30;72.12
47166;BME280;32930;51.112;13.762;2022-10-31T11:47:01;99851.44;;;19.48;72.51
47166;BME280;32930;51.112;13.762;2022-10-31T11:49:40;99854.47;;;19.31;71.21
47166;BME280;32930;51.112;13.762;2022-10-31T11:52:25;99850.19;;;19.29;70.40
47166;BME280;32930;51.112;13.762;2022-10-31T11:54:55;99848.22;;;19.38;70.86
47166;BME280;32930;51.112;13.762;2022-10-31T11:57:42;99844.50;;;19.14;71.95
47166;BME280;32930;51.112;13.762;2022-10-31T12:00:28;99843.47;;;19.21;72.24
47166;BME280;32930;51.112;13.762;2022-10-31T12:05:42;99839.09;;;19.22;72.84
47166;BME280;32930;51.112;13.762;2022-10-31T12:08:12;99826.88;;;19.26;73.99
47166;BME280;32930;51.112;13.762;2022-10-31T12:16:02;99829.00;;;19.44;71.99
47166;BME280;32930;51.112;13.762;2022-10-31T14:19:05;99722.47;;;18.74;72.17
47166;BME280;32930;51.112;13.762;2022-10-31T14:31:45;99703.47;;;18.70;71.06
47166;BME280;32930;51.112;13.762;2022-10-31T14:34:39;99710.66;;;18.61;72.37
47166;BME280;32930;51.112;13.762;2022-10-31T14:43:39;99705.81;;;18.45;74.98
47166;BME280;32930;51.112;13.762;2022-10-31T14:46:05;99699.09;;;18.38;76.46
47166;BME280;32930;51.112;13.762;2022-10-31T14:51:16;99695.13;;;18.22;78.42
47166;BME280;32930;51.112;13.762;2022-10-31T14:53:52;99698.03;;;18.10;79.67
47166;BME280;32930;51.112;13.762;2022-10-31T14:56:29;99700.78;;;18.02;81.29
47166;BME280;32930;51.112;13.762;2022-10-31T14:58:59;99695.78;;;17.94;82.10
47166;BME280;32930;51.112;13.762;2022-10-31T15:01:32;99687.31;;;17.86;83.61
47166;BME280;32930;51.112;13.762;2022-10-31T15:04:18;99693.53;;;17.79;84.56
47166;BME280;32930;51.112;13.762;2022-10-31T16:25:33;99638.47;;;16.27;90.57
47166;BME280;32930;51.112;13.762;2022-10-31T16:28:05;99637.63;;;16.28;90.52
47166;BME280;32930;51.112;13.762;2022-10-31T17:00:09;99625.13;;;16.02;90.99
47166;BME280;32930;51.112;13.762;2022-10-31T18:53:00;99566.13;;;15.68;91.68
47166;BME280;32930;51.112;13.762;2022-10-31T18:55:26;99569.72;;;15.58;91.80
47166;BME280;32930;51.112;13.762;2022-10-31T18:57:51;99566.22;;;15.59;91.92
47166;BME280;32930;51.112;13.762;2022-10-31T19:00:17;99570.50;;;15.61;92.48
47166;BME280;32930;51.112;13.762;2022-10-31T20:00:49;99521.63;;;15.44;93.84
47166;BME280;32930;51.112;13.762;2022-10-31T20:03:15;99521.66;;;15.41;93.35
47166;BME280;32930;51.112;13.762;2022-10-31T20:05:41;99513.94;;;15.40;93.28
47166;BME280;32930;51.112;13.762;2022-10-31T21:18:01;99447.13;;;15.71;93.03
47166;BME280;32930;51.112;13.762;2022-10-31T21:20:27;99450.44;;;15.78;92.52
47166;BME280;32930;51.112;13.762;2022-10-31T21:22:53;99458.84;;;15.89;91.32
47166;BME280;32930;51.112;13.762;2022-10-31T21:25:19;99461.44;;;15.90;91.17
47166;BME280;32930;51.112;13.762;2022-10-31T21:27:45;99470.06;;;15.89;91.70
47166;BME280;32930;51.112;13.762;2022-10-31T21:30:10;99455.72;;;15.71;91.92
47166;BME280;32930;51.112;13.762;2022-10-31T21:32:36;99450.78;;;15.58;92.17
47166;BME280;32930;51.112;13.762;2022-10-31T21:35:01;99447.16;;;15.68;91.98
47166;BME280;32930;51.112;13.762;2022-10-31T21:37:27;99451.63;;;15.57;93.36
47166;BME280;32930;51.112;13.762;2022-10-31T21:39:52;99461.00;;;15.67;93.11
47166;BME280;32930;51.112;13.762;2022-10-31T21:42:20;99458.22;;;15.78;91.97
47166;BME280;32930;51.112;13.762;2022-10-31T21:44:48;99456.00;;;15.55;92.76
47166;BME280;32930;51.112;13.762;2022-10-31T21:47:21;99448.06;;;15.64;92.76
47166;BME280;32930;51.112;13.762;2022-10-31T21:49:46;99440.78;;;15.36;93.67
47166;BME280;32930;51.112;13.762;2022-10-31T21:52:12;99431.28;;;15.37;94.49
47166;BME280;32930;51.112;13.762;2022-10-31T21:54:38;99433.78;;;15.41;93.69
47166;BME280;32930;51.112;13.762;2022-10-31T21:57:04;99424.31;;;15.40;94.47
47166;BME280;32930;51.112;13.762;2022-10-31T21:59:29;99416.47;;;15.48;94.45
47166;BME280;32930;51.112;13.762;2022-10-31T22:12:17;99401.66;;;15.56;94.47
47166;BME280;32930;51.112;13.762;2022-10-31T22:14:42;99395.75;;;15.49;95.48
47166;BME280;32930;51.112;13.762;2022-10-31T22:17:08;99383.59;;;15.55;95.46
47166;BME280;32930;51.112;13.762;2022-10-31T22:19:34;99390.66;;;15.43;96.15
47166;BME280;32930;51.112;13.762;2022-10-31T22:22:03;99385.56;;;15.40;97.22
47166;BME280;32930;51.112;13.762;2022-10-31T22:24:29;99387.88;;;15.56;97.52
47166;BME280;32930;51.112;13.762;2022-10-31T22:26:54;99380.06;;;15.57;98.04
47166;BME280;32930;51.112;13.762;2022-10-31T22:29:20;99389.56;;;15.57;96.69
47166;BME280;32930;51.112;13.762;2022-10-31T22:31:49;99384.50;;;15.50;97.73
47166;BME280;32930;51.112;13.762;2022-10-31T22:34:15;99376.75;;;15.52;99.89
47166;BME280;32930;51.112;13.762;2022-10-31T22:36:42;99382.53;;;15.65;97.72
47166;BME280;32930;51.112;13.762;2022-10-31T22:39:10;99370.66;;;15.55;97.51
47166;BME280;32930;51.112;13.762;2022-10-31T22:41:38;99359.34;;;15.60;98.22
47166;BME280;32930;51.112;13.762;2022-10-31T22:44:04;99362.56;;;15.74;97.68
47166;BME280;32930;51.112;13.762;2022-10-31T22:46:37;99358.34;;;15.69;98.39
47166;BME280;32930;51.112;13.762;2022-10-31T22:49:06;99355.09;;;15.58;97.80
47166;BME280;32930;51.112;13.762;2022-10-31T22:51:36;99359.88;;;15.81;96.78
47166;BME280;32930;51.112;13.762;2022-10-31T22:54:02;99358.25;;;15.75;96.87
47166;BME280;32930;51.112;13.762;2022-10-31T22:56:31;99359.69;;;15.90;96.04
47166;BME280;32930;51.112;13.762;2022-10-31T22:58:57;99355.59;;;15.78;96.47
47166;BME280;32930;51.112;13.762;2022-10-31T23:01:27;99343.81;;;15.62;97.26
47166;BME280;32930;51.112;13.762;2022-10-31T23:03:53;99340.91;;;15.79;97.30
47166;BME280;32930;51.112;13.762;2022-10-31T23:06:23;99339.22;;;15.78;96.46
47166;BME280;32930;51.112;13.762;2022-10-31T23:08:50;99339.91;;;15.87;96.15
47166;BME280;32930;51.112;13.762;2022-10-31T23:11:27;99340.66;;;15.92;96.24
47166;BME280;32930;51.112;13.762;2022-10-31T23:13:55;99337.44;;;15.81;97.92
47166;BME280;32930;51.112;13.762;2022-10-31T23:16:50;99333.03;;;15.86;97.93
47166;BME280;32930;51.112;13.762;2022-10-31T23:19:22;99329.59;;;15.84;98.04
47166;BME280;32930;51.112;13.762;2022-10-31T23:21:50;99325.63;;;15.68;98.55
47166;BME280;32930;51.112;13.762;2022-10-31T23:24:38;99325.34;;;15.83;97.66
47166;BME280;32930;51.112;13.762;2022-10-31T23:27:24;99316.84;;;15.75;97.28
47166;BME280;32930;51.112;13.762;2022-10-31T23:29:53;99308.31;;;15.71;96.98
47166;BME280;32930;51.112;13.762;2022-10-31T23:32:25;99310.94;;;15.70;96.49
47166;BME280;32930;51.112;13.762;2022-10-31T23:34:54;99307.56;;;15.63;96.15
47166;BME280;32930;51.112;13.762;2022-10-31T23:37:23;99302.66;;;15.51;97.03
47166;BME280;32930;51.112;13.762;2022-10-31T23:39:49;99296.66;;;15.47;96.60
47166;BME280;32930;51.112;13.762;2022-10-31T23:42:15;99294.13;;;15.44;96.41
47166;BME280;32930;51.112;13.762;2022-10-31T23:44:41;99296.03;;;15.36;96.01
47166;BME280;32930;51.112;13.762;2022-10-31T23:47:07;99283.16;;;15.33;96.50
47166;BME280;32930;51.112;13.762;2022-10-31T23:49:33;99283.34;;;15.22;96.85
47166;BME280;32930;51.112;13.762;2022-10-31T23:51:59;99273.09;;;15.16;95.93
47166;BME280;32930;51.112;13.762;2022-10-31T23:54:26;99274.91;;;15.13;96.04
47166;BME280;32930;51.112;13.762;2022-10-31T23:56:52;99278.41;;;15.10;96.03
47166;BME280;32930;51.112;13.762;2022-10-31T23:59:18;99276.69;;;15.09;95.99
